sensor_id;sensor_type;location;lat;lon;timestamp;pressure;altitude;pressure_sealevel;temperature;humidity
65183;BME280;51771;51.068;-1.780;2024-02-16T00:00:45;100002.16;;;0.01;nan
65183;BME280;51771;51.068;-1.780;2024-02-16T00:03:12;100002.16;;;0.01;nan
65183;BME280;51771;51.068;-1.780;2024-02-16T00:05:37;100002.16;;;0.01;nan
65183;BME280;51771;51.068;-1.780;2024-02-16T00:08:03;100002.16;;;0.01;nan
65183;BME280;51771;51.068;-1.780;2024-02-16T00:10:28;100002.16;;;0.01;nan
65183;BME280;51771;51.068;-1.780;2024-02-16T00:12:54;100002.16;;;0.01;nan
65183;BME280;51771;51.068;-1.780;2024-02-16T00:15:19;100002.16;;;0.01;nan
65183;BME280;51771;51.068;-1.780;2024-02-16T00:17:45;100002.16;;;0.01;nan
65183;BME280;51771;51.068;-1.780;2024-02-16T00:20:11;100002.16;;;0.01;nan
65183;BME280;51771;51.068;-1.780;2024-02-16T00:22:38;100002.16;;;0.01;nan
65183;BME280;51771;51.068;-1.780;2024-02-16T00:25:03;100002.16;;;0.01;nan
65183;BME280;51771;51.068;-1.780;2024-02-16T00:27:29;100002.16;;;0.01;nan
65183;BME280;51771;51.068;-1.780;2024-02-16T00:29:54;100002.16;;;0.01;nan
65183;BME280;51771;51.068;-1.780;2024-02-16T00:32:20;100002.16;;;0.01;nan
65183;BME280;51771;51.068;-1.780;2024-02-16T00:34:45;100002.16;;;0.01;nan
65183;BME280;51771;51.068;-1.780;2024-02-16T00:37:11;100002.16;;;0.01;nan
65183;BME280;51771;51.068;-1.780;2024-02-16T00:39:39;100002.16;;;0.01;nan
65183;BME280;51771;51.068;-1.780;2024-02-16T00:42:08;100002.16;;;0.01;nan
65183;BME280;51771;51.068;-1.780;2024-02-16T00:44:33;100002.16;;;0.01;nan
65183;BME280;51771;51.068;-1.780;2024-02-16T00:46:59;100002.16;;;0.01;nan
65183;BME280;51771;51.068;-1.780;2024-02-16T00:49:24;100002.16;;;0.01;nan
65183;BME280;51771;51.068;-1.780;2024-02-16T00:51:49;100002.16;;;0.01;nan
65183;BME280;51771;51.068;-1.780;2024-02-16T00:54:16;100002.16;;;0.01;nan
65183;BME280;51771;51.068;-1.780;2024-02-16T00:56:42;100002.16;;;0.01;nan
65183;BME280;51771;51.068;-1.780;2024-02-16T00:59:07;100002.16;;;0.01;nan
65183;BME280;51771;51.068;-1.780;2024-02-16T01:01:34;100002.16;;;0.01;nan
65183;BME280;51771;51.068;-1.780;2024-02-16T01:04:00;100002.16;;;0.01;nan
65183;BME280;51771;51.068;-1.780;2024-02-16T01:06:26;100002.16;;;0.01;nan
65183;BME280;51771;51.068;-1.780;2024-02-16T01:08:51;100002.16;;;0.01;nan
65183;BME280;51771;51.068;-1.780;2024-02-16T01:11:16;100002.16;;;0.01;nan
65183;BME280;51771;51.068;-1.780;2024-02-16T01:13:42;100002.16;;;0.01;nan
65183;BME280;51771;51.068;-1.780;2024-02-16T01:16:08;100002.16;;;0.01;nan
65183;BME280;51771;51.068;-1.780;2024-02-16T01:18:35;100002.16;;;0.01;nan
65183;BME280;51771;51.068;-1.780;2024-02-16T01:21:01;100002.16;;;0.01;nan
65183;BME280;51771;51.068;-1.780;2024-02-16T01:23:28;100002.16;;;0.01;nan
65183;BME280;51771;51.068;-1.780;2024-02-16T01:25:53;100002.16;;;0.01;nan
65183;BME280;51771;51.068;-1.780;2024-02-16T01:28:19;100002.16;;;0.01;nan
65183;BME280;51771;51.068;-1.780;2024-02-16T01:30:44;100002.16;;;0.01;nan
65183;BME280;51771;51.068;-1.780;2024-02-16T01:33:09;100002.16;;;0.01;nan
65183;BME280;51771;51.068;-1.780;2024-02-16T01:35:36;100002.16;;;0.01;nan
65183;BME280;51771;51.068;-1.780;2024-02-16T01:38:01;100002.16;;;0.01;nan
65183;BME280;51771;51.068;-1.780;2024-02-16T01:40:28;100002.16;;;0.01;nan
65183;BME280;51771;51.068;-1.780;2024-02-16T01:42:54;100002.16;;;0.01;nan
65183;BME280;51771;51.068;-1.780;2024-02-16T01:45:20;100002.16;;;0.01;nan
65183;BME280;51771;51.068;-1.780;2024-02-16T01:47:47;100002.16;;;0.01;nan
65183;BME280;51771;51.068;-1.780;2024-02-16T01:50:14;100002.16;;;0.01;nan
65183;BME280;51771;51.068;-1.780;2024-02-16T01:52:40;100002.16;;;0.01;nan
65183;BME280;51771;51.068;-1.780;2024-02-16T01:55:05;100002.16;;;0.01;nan
65183;BME280;51771;51.068;-1.780;2024-02-16T01:57:35;100002.16;;;0.01;nan
65183;BME280;51771;51.068;-1.780;2024-02-16T02:00:00;100002.16;;;0.01;nan
65183;BME280;51771;51.068;-1.780;2024-02-16T02:02:26;100002.16;;;0.01;nan
65183;BME280;51771;51.068;-1.780;2024-02-16T02:04:52;100002.16;;;0.01;nan
65183;BME280;51771;51.068;-1.780;2024-02-16T02:07:18;100002.16;;;0.01;nan
65183;BME280;51771;51.068;-1.780;2024-02-16T02:09:44;100002.16;;;0.01;nan
65183;BME280;51771;51.068;-1.780;2024-02-16T02:12:09;100002.16;;;0.01;nan
65183;BME280;51771;51.068;-1.780;2024-02-16T02:14:35;100002.16;;;0.01;nan
65183;BME280;51771;51.068;-1.780;2024-02-16T02:17:02;100002.16;;;0.01;nan
65183;BME280;51771;51.068;-1.780;2024-02-16T02:19:29;100002.16;;;0.01;nan
65183;BME280;51771;51.068;-1.780;2024-02-16T02:21:54;100002.16;;;0.01;nan
65183;BME280;51771;51.068;-1.780;2024-02-16T02:24:20;100002.16;;;0.01;nan
65183;BME280;51771;51.068;-1.780;2024-02-16T02:26:46;100002.16;;;0.01;nan
65183;BME280;51771;51.068;-1.780;2024-02-16T02:29:11;100002.16;;;0.01;nan
65183;BME280;51771;51.068;-1.780;2024-02-16T02:31:37;100002.16;;;0.01;nan
65183;BME280;51771;51.068;-1.780;2024-02-16T02:34:02;100002.16;;;0.01;nan
65183;BME280;51771;51.068;-1.780;2024-02-16T02:36:27;100002.16;;;0.01;nan
65183;BME280;51771;51.068;-1.780;2024-02-16T02:38:53;100002.16;;;0.01;nan
65183;BME280;51771;51.068;-1.780;2024-02-16T02:41:18;100002.16;;;0.01;nan
65183;BME280;51771;51.068;-1.780;2024-02-16T02:43:45;100002.16;;;0.01;nan
65183;BME280;51771;51.068;-1.780;2024-02-16T02:46:17;100002.16;;;0.01;nan
65183;BME280;51771;51.068;-1.780;2024-02-16T02:48:46;100002.16;;;0.01;nan
65183;BME280;51771;51.068;-1.780;2024-02-16T02:51:12;100002.16;;;0.01;nan
65183;BME280;51771;51.068;-1.780;2024-02-16T02:53:37;100002.16;;;0.01;nan
65183;BME280;51771;51.068;-1.780;2024-02-16T02:56:03;100002.16;;;0.01;nan
65183;BME280;51771;51.068;-1.780;2024-02-16T02:58:29;100002.16;;;0.01;nan
65183;BME280;51771;51.068;-1.780;2024-02-16T03:00:54;100002.16;;;0.01;nan
65183;BME280;51771;51.068;-1.780;2024-02-16T03:03:20;100002.16;;;0.01;nan
65183;BME280;51771;51.068;-1.780;2024-02-16T03:05:46;100002.16;;;0.01;nan
65183;BME280;51771;51.068;-1.780;2024-02-16T03:08:12;100002.16;;;0.01;nan
65183;BME280;51771;51.068;-1.780;2024-02-16T03:10:37;100002.16;;;0.01;nan
65183;BME280;51771;51.068;-1.780;2024-02-16T03:13:03;100002.16;;;0.01;nan
65183;BME280;51771;51.068;-1.780;2024-02-16T03:15:29;100002.16;;;0.01;nan
65183;BME280;51771;51.068;-1.780;2024-02-16T03:17:55;100002.16;;;0.01;nan
65183;BME280;51771;51.068;-1.780;2024-02-16T03:20:20;100002.16;;;0.01;nan
65183;BME280;51771;51.068;-1.780;2024-02-16T03:22:46;100002.16;;;0.01;nan
65183;BME280;51771;51.068;-1.780;2024-02-16T03:25:12;100002.16;;;0.01;nan
65183;BME280;51771;51.068;-1.780;2024-02-16T03:27:37;100002.16;;;0.01;nan
65183;BME280;51771;51.068;-1.780;2024-02-16T03:30:03;100002.16;;;0.01;nan
65183;BME280;51771;51.068;-1.780;2024-02-16T03:32:30;100002.16;;;0.01;nan
65183;BME280;51771;51.068;-1.780;2024-02-16T03:34:57;100002.16;;;0.01;nan
65183;BME280;51771;51.068;-1.780;2024-02-16T03:37:23;100002.16;;;0.01;nan
65183;BME280;51771;51.068;-1.780;2024-02-16T03:39:48;100002.16;;;0.01;nan
65183;BME280;51771;51.068;-1.780;2024-02-16T03:42:14;100002.16;;;0.01;nan
65183;BME280;51771;51.068;-1.780;2024-02-16T03:44:40;100002.16;;;0.01;nan
65183;BME280;51771;51.068;-1.780;2024-02-16T03:47:05;100002.16;;;0.01;nan
65183;BME280;51771;51.068;-1.780;2024-02-16T03:49:31;100002.16;;;0.01;nan
65183;BME280;51771;51.068;-1.780;2024-02-16T03:51:56;100002.16;;;0.01;nan
65183;BME280;51771;51.068;-1.780;2024-02-16T03:54:21;100002.16;;;0.01;nan
65183;BME280;51771;51.068;-1.780;2024-02-16T03:56:46;100002.16;;;0.01;nan
65183;BME280;51771;51.068;-1.780;2024-02-16T03:59:13;100002.16;;;0.01;nan
65183;BME280;51771;51.068;-1.780;2024-02-16T04:01:39;100002.16;;;0.01;nan
65183;BME280;51771;51.068;-1.780;2024-02-16T04:04:04;100002.16;;;0.01;nan
65183;BME280;51771;51.068;-1.780;2024-02-16T04:06:29;100002.16;;;0.01;nan
65183;BME280;51771;51.068;-1.780;2024-02-16T04:08:55;100002.16;;;0.01;nan
65183;BME280;51771;51.068;-1.780;2024-02-16T04:11:21;100002.16;;;0.01;nan
65183;BME280;51771;51.068;-1.780;2024-02-16T04:13:46;100002.16;;;0.01;nan
65183;BME280;51771;51.068;-1.780;2024-02-16T04:16:12;100002.16;;;0.01;nan
65183;BME280;51771;51.068;-1.780;2024-02-16T04:18:38;100002.16;;;0.01;nan
65183;BME280;51771;51.068;-1.780;2024-02-16T04:21:03;100002.16;;;0.01;nan
65183;BME280;51771;51.068;-1.780;2024-02-16T04:23:29;100002.16;;;0.01;nan
65183;BME280;51771;51.068;-1.780;2024-02-16T04:25:54;100002.16;;;0.01;nan
65183;BME280;51771;51.068;-1.780;2024-02-16T04:28:19;100002.16;;;0.01;nan
65183;BME280;51771;51.068;-1.780;2024-02-16T04:30:44;100002.16;;;0.01;nan
65183;BME280;51771;51.068;-1.780;2024-02-16T04:33:10;100002.16;;;0.01;nan
65183;BME280;51771;51.068;-1.780;2024-02-16T04:35:35;100002.16;;;0.01;nan
65183;BME280;51771;51.068;-1.780;2024-02-16T04:38:00;100002.16;;;0.01;nan
65183;BME280;51771;51.068;-1.780;2024-02-16T04:40:26;100002.16;;;0.01;nan
65183;BME280;51771;51.068;-1.780;2024-02-16T04:42:51;100002.16;;;0.01;nan
65183;BME280;51771;51.068;-1.780;2024-02-16T04:45:17;100002.16;;;0.01;nan
65183;BME280;51771;51.068;-1.780;2024-02-16T04:47:42;100002.16;;;0.01;nan
65183;BME280;51771;51.068;-1.780;2024-02-16T04:50:08;100002.16;;;0.01;nan
65183;BME280;51771;51.068;-1.780;2024-02-16T04:52:37;100002.16;;;0.01;nan
65183;BME280;51771;51.068;-1.780;2024-02-16T04:55:03;100002.16;;;0.01;nan
65183;BME280;51771;51.068;-1.780;2024-02-16T04:57:30;100002.16;;;0.01;nan
65183;BME280;51771;51.068;-1.780;2024-02-16T04:59:56;100002.16;;;0.01;nan
65183;BME280;51771;51.068;-1.780;2024-02-16T05:02:21;100002.16;;;0.01;nan
65183;BME280;51771;51.068;-1.780;2024-02-16T05:04:47;100002.16;;;0.01;nan
65183;BME280;51771;51.068;-1.780;2024-02-16T05:07:12;100002.16;;;0.01;nan
65183;BME280;51771;51.068;-1.780;2024-02-16T05:09:37;100002.16;;;0.01;nan
65183;BME280;51771;51.068;-1.780;2024-02-16T05:12:05;100002.16;;;0.01;nan
65183;BME280;51771;51.068;-1.780;2024-02-16T05:14:30;100002.16;;;0.01;nan
65183;BME280;51771;51.068;-1.780;2024-02-16T05:16:55;100002.16;;;0.01;nan
65183;BME280;51771;51.068;-1.780;2024-02-16T05:19:21;100002.16;;;0.01;nan
65183;BME280;51771;51.068;-1.780;2024-02-16T05:21:46;100002.16;;;0.01;nan
65183;BME280;51771;51.068;-1.780;2024-02-16T05:24:12;100002.16;;;0.01;nan
65183;BME280;51771;51.068;-1.780;2024-02-16T05:26:37;100002.16;;;0.01;nan
65183;BME280;51771;51.068;-1.780;2024-02-16T05:29:03;100002.16;;;0.01;nan
65183;BME280;51771;51.068;-1.780;2024-02-16T05:31:28;100002.16;;;0.01;nan
65183;BME280;51771;51.068;-1.780;2024-02-16T05:33:54;100002.16;;;0.01;nan
65183;BME280;51771;51.068;-1.780;2024-02-16T05:36:22;100002.16;;;0.01;nan
65183;BME280;51771;51.068;-1.780;2024-02-16T05:38:50;100002.16;;;0.01;nan
65183;BME280;51771;51.068;-1.780;2024-02-16T05:41:16;100002.16;;;0.01;nan
65183;BME280;51771;51.068;-1.780;2024-02-16T05:43:43;100002.16;;;0.01;nan
65183;BME280;51771;51.068;-1.780;2024-02-16T05:46:13;100002.16;;;0.01;nan
65183;BME280;51771;51.068;-1.780;2024-02-16T05:48:38;100002.16;;;0.01;nan
65183;BME280;51771;51.068;-1.780;2024-02-16T05:51:06;100002.16;;;0.01;nan
65183;BME280;51771;51.068;-1.780;2024-02-16T05:53:34;100002.16;;;0.01;nan
65183;BME280;51771;51.068;-1.780;2024-02-16T05:56:00;100002.16;;;0.01;nan
65183;BME280;51771;51.068;-1.780;2024-02-16T05:58:26;100002.16;;;0.01;nan
65183;BME280;51771;51.068;-1.780;2024-02-16T06:00:51;100002.16;;;0.01;nan
65183;BME280;51771;51.068;-1.780;2024-02-16T06:03:17;100002.16;;;0.01;nan
65183;BME280;51771;51.068;-1.780;2024-02-16T06:05:43;100002.16;;;0.01;nan
65183;BME280;51771;51.068;-1.780;2024-02-16T06:08:11;100002.16;;;0.01;nan
65183;BME280;51771;51.068;-1.780;2024-02-16T06:10:37;100002.16;;;0.01;nan
65183;BME280;51771;51.068;-1.780;2024-02-16T06:13:02;100002.16;;;0.01;nan
65183;BME280;51771;51.068;-1.780;2024-02-16T06:15:27;100002.16;;;0.01;nan
65183;BME280;51771;51.068;-1.780;2024-02-16T06:17:53;100002.16;;;0.01;nan
65183;BME280;51771;51.068;-1.780;2024-02-16T06:20:19;100002.16;;;0.01;nan
65183;BME280;51771;51.068;-1.780;2024-02-16T06:22:44;100002.16;;;0.01;nan
65183;BME280;51771;51.068;-1.780;2024-02-16T06:25:09;100002.16;;;0.01;nan
65183;BME280;51771;51.068;-1.780;2024-02-16T06:27:35;100002.16;;;0.01;nan
65183;BME280;51771;51.068;-1.780;2024-02-16T06:30:03;100002.16;;;0.01;nan
65183;BME280;51771;51.068;-1.780;2024-02-16T06:32:32;100002.16;;;0.01;nan
65183;BME280;51771;51.068;-1.780;2024-02-16T06:34:57;100002.16;;;0.01;nan
65183;BME280;51771;51.068;-1.780;2024-02-16T06:37:23;100002.16;;;0.01;nan
65183;BME280;51771;51.068;-1.780;2024-02-16T06:39:48;100002.16;;;0.01;nan
65183;BME280;51771;51.068;-1.780;2024-02-16T06:42:14;100002.16;;;0.01;nan
65183;BME280;51771;51.068;-1.780;2024-02-16T06:44:39;100002.16;;;0.01;nan
65183;BME280;51771;51.068;-1.780;2024-02-16T06:47:05;100002.16;;;0.01;nan
65183;BME280;51771;51.068;-1.780;2024-02-16T06:49:31;100002.16;;;0.01;nan
65183;BME280;51771;51.068;-1.780;2024-02-16T06:51:56;100002.16;;;0.01;nan
65183;BME280;51771;51.068;-1.780;2024-02-16T06:54:21;100002.16;;;0.01;nan
65183;BME280;51771;51.068;-1.780;2024-02-16T06:56:47;100002.16;;;0.01;nan
65183;BME280;51771;51.068;-1.780;2024-02-16T06:59:13;100002.16;;;0.01;nan
65183;BME280;51771;51.068;-1.780;2024-02-16T07:01:38;100002.16;;;0.01;nan
65183;BME280;51771;51.068;-1.780;2024-02-16T07:04:04;100002.16;;;0.01;nan
65183;BME280;51771;51.068;-1.780;2024-02-16T07:06:29;100002.16;;;0.01;nan
65183;BME280;51771;51.068;-1.780;2024-02-16T07:08:55;100002.16;;;0.01;nan
65183;BME280;51771;51.068;-1.780;2024-02-16T07:11:20;100002.16;;;0.01;nan
65183;BME280;51771;51.068;-1.780;2024-02-16T07:13:46;100002.16;;;0.01;nan
65183;BME280;51771;51.068;-1.780;2024-02-16T07:16:11;100002.16;;;0.01;nan
65183;BME280;51771;51.068;-1.780;2024-02-16T07:18:37;100002.16;;;0.01;nan
65183;BME280;51771;51.068;-1.780;2024-02-16T07:21:02;100002.16;;;0.01;nan
65183;BME280;51771;51.068;-1.780;2024-02-16T07:23:28;100002.16;;;0.01;nan
65183;BME280;51771;51.068;-1.780;2024-02-16T07:25:55;100002.16;;;0.01;nan
65183;BME280;51771;51.068;-1.780;2024-02-16T07:28:22;100002.16;;;0.01;nan
65183;BME280;51771;51.068;-1.780;2024-02-16T07:30:47;100002.16;;;0.01;nan
65183;BME280;51771;51.068;-1.780;2024-02-16T07:33:13;100002.16;;;0.01;nan
65183;BME280;51771;51.068;-1.780;2024-02-16T07:35:38;100002.16;;;0.01;nan
65183;BME280;51771;51.068;-1.780;2024-02-16T07:38:04;100002.16;;;0.01;nan
65183;BME280;51771;51.068;-1.780;2024-02-16T07:40:30;100002.16;;;0.01;nan
65183;BME280;51771;51.068;-1.780;2024-02-16T07:42:56;100002.16;;;0.01;nan
65183;BME280;51771;51.068;-1.780;2024-02-16T07:45:21;100002.16;;;0.01;nan
65183;BME280;51771;51.068;-1.780;2024-02-16T07:47:47;100002.16;;;0.01;nan
65183;BME280;51771;51.068;-1.780;2024-02-16T07:50:12;100002.16;;;0.01;nan
65183;BME280;51771;51.068;-1.780;2024-02-16T07:52:39;100002.16;;;0.01;nan
65183;BME280;51771;51.068;-1.780;2024-02-16T07:55:06;100002.16;;;0.01;nan
65183;BME280;51771;51.068;-1.780;2024-02-16T07:57:31;100002.16;;;0.01;nan
65183;BME280;51771;51.068;-1.780;2024-02-16T07:59:57;100002.16;;;0.01;nan
65183;BME280;51771;51.068;-1.780;2024-02-16T08:02:22;100002.16;;;0.01;nan
65183;BME280;51771;51.068;-1.780;2024-02-16T08:04:48;100002.16;;;0.01;nan
65183;BME280;51771;51.068;-1.780;2024-02-16T08:07:14;100002.16;;;0.01;nan
65183;BME280;51771;51.068;-1.780;2024-02-16T08:09:39;100002.16;;;0.01;nan
65183;BME280;51771;51.068;-1.780;2024-02-16T08:12:05;100002.16;;;0.01;nan
65183;BME280;51771;51.068;-1.780;2024-02-16T08:14:33;100002.16;;;0.01;nan
65183;BME280;51771;51.068;-1.780;2024-02-16T08:16:58;100002.16;;;0.01;nan
65183;BME280;51771;51.068;-1.780;2024-02-16T08:19:32;100002.16;;;0.01;nan
65183;BME280;51771;51.068;-1.780;2024-02-16T08:21:57;100002.16;;;0.01;nan
65183;BME280;51771;51.068;-1.780;2024-02-16T08:24:23;100002.16;;;0.01;nan
65183;BME280;51771;51.068;-1.780;2024-02-16T08:26:48;100002.16;;;0.01;nan
65183;BME280;51771;51.068;-1.780;2024-02-16T08:29:14;100002.16;;;0.01;nan
65183;BME280;51771;51.068;-1.780;2024-02-16T08:31:39;100002.16;;;0.01;nan
65183;BME280;51771;51.068;-1.780;2024-02-16T08:34:04;100002.16;;;0.01;nan
65183;BME280;51771;51.068;-1.780;2024-02-16T08:36:32;100002.16;;;0.01;nan
65183;BME280;51771;51.068;-1.780;2024-02-16T08:38:59;100002.16;;;0.01;nan
65183;BME280;51771;51.068;-1.780;2024-02-16T08:41:24;100002.16;;;0.01;nan
65183;BME280;51771;51.068;-1.780;2024-02-16T08:43:50;100002.16;;;0.01;nan
65183;BME280;51771;51.068;-1.780;2024-02-16T08:46:15;100000.63;;;0.01;nan
65183;BME280;51771;51.068;-1.780;2024-02-16T08:48:41;99610.00;;;0.01;nan
65183;BME280;51771;51.068;-1.780;2024-02-16T08:51:06;99610.00;;;0.01;nan
65183;BME280;51771;51.068;-1.780;2024-02-16T08:53:32;99414.69;;;0.01;nan
65183;BME280;51771;51.068;-1.780;2024-02-16T08:55:57;99219.38;;;0.01;nan
65183;BME280;51771;51.068;-1.780;2024-02-16T08:58:23;100002.16;;;0.01;nan
65183;BME280;51771;51.068;-1.780;2024-02-16T09:00:48;100000.63;;;0.01;nan
65183;BME280;51771;51.068;-1.780;2024-02-16T09:03:15;99414.69;;;0.01;nan
65183;BME280;51771;51.068;-1.780;2024-02-16T09:05:41;97266.25;;;0.01;nan
65183;BME280;51771;51.068;-1.780;2024-02-16T09:08:08;92774.03;;;0.01;nan
65183;BME280;51771;51.068;-1.780;2024-02-16T09:10:34;87109.94;;;0.01;nan
65183;BME280;51771;51.068;-1.780;2024-02-16T09:12:59;83008.34;;;0.01;nan
65183;BME280;51771;51.068;-1.780;2024-02-16T09:15:25;72852.03;;;0.01;nan
65183;BME280;51771;51.068;-1.780;2024-02-16T09:17:50;67969.22;;;0.01;nan
65183;BME280;51771;51.068;-1.780;2024-02-16T09:20:15;65820.75;;;0.01;nan
65183;BME280;51771;51.068;-1.780;2024-02-16T09:22:47;62305.09;;;0.01;nan
65183;BME280;51771;51.068;-1.780;2024-02-16T09:25:12;55031.19;;;0.01;nan
65183;BME280;51771;51.068;-1.780;2024-02-16T09:27:39;47171.34;;;0.01;nan
65183;BME280;51771;51.068;-1.780;2024-02-16T09:30:06;47696.25;;;0.01;nan
65183;BME280;51771;51.068;-1.780;2024-02-16T09:32:32;47919.03;;;0.01;nan
65183;BME280;51771;51.068;-1.780;2024-02-16T09:34:57;30673.41;;;0.01;nan
65183;BME280;51771;51.068;-1.780;2024-02-16T09:37:23;40902.97;;;0.01;nan
65183;BME280;51771;51.068;-1.780;2024-02-16T09:39:48;36792.22;;;0.01;nan
65183;BME280;51771;51.068;-1.780;2024-02-16T09:42:13;29829.59;;;0.01;nan
65183;BME280;51771;51.068;-1.780;2024-02-16T09:44:39;27588.06;;;0.01;nan
65183;BME280;51771;51.068;-1.780;2024-02-16T09:47:07;24545.44;;;0.01;nan
65183;BME280;51771;51.068;-1.780;2024-02-16T09:49:32;25784.44;;;0.01;nan
65183;BME280;51771;51.068;-1.780;2024-02-16T09:51:59;27737.59;;;0.01;nan
65183;BME280;51771;51.068;-1.780;2024-02-16T09:54:27;27542.28;;;0.01;nan
65183;BME280;51771;51.068;-1.780;2024-02-16T09:56:52;27932.91;;;0.01;nan
65183;BME280;51771;51.068;-1.780;2024-02-16T09:59:18;29690.72;;;0.01;nan
65183;BME280;51771;51.068;-1.780;2024-02-16T10:01:43;29300.09;;;0.01;nan
65183;BME280;51771;51.068;-1.780;2024-02-16T10:04:08;30276.69;;;0.01;nan
65183;BME280;51771;51.068;-1.780;2024-02-16T10:06:46;28714.16;;;0.01;nan
65183;BME280;51771;51.068;-1.780;2024-02-16T10:09:22;30472.00;;;0.01;nan
65183;BME280;51771;51.068;-1.780;2024-02-16T10:11:48;27932.91;;;0.01;nan
65183;BME280;51771;51.068;-1.780;2024-02-16T10:14:13;33401.69;;;0.01;nan
65183;BME280;51771;51.068;-1.780;2024-02-16T10:16:38;38089.25;;;0.01;nan
65183;BME280;51771;51.068;-1.780;2024-02-16T10:19:08;38089.25;;;0.01;nan
65183;BME280;51771;51.068;-1.780;2024-02-16T10:21:35;42972.09;;;0.01;nan
65183;BME280;51771;51.068;-1.780;2024-02-16T10:26:28;49417.44;;;0.01;nan
65183;BME280;51771;51.068;-1.780;2024-02-16T10:28:55;50784.66;;;0.01;nan
65183;BME280;51771;51.068;-1.780;2024-02-16T10:31:25;50589.34;;;0.01;nan
65183;BME280;51771;51.068;-1.780;2024-02-16T10:34:03;47854.94;;;0.01;nan
65183;BME280;51771;51.068;-1.780;2024-02-16T10:36:38;49026.81;;;0.01;nan
65183;BME280;51771;51.068;-1.780;2024-02-16T10:39:04;51370.59;;;0.01;nan
65183;BME280;51771;51.068;-1.780;2024-02-16T10:41:34;53714.34;;;0.01;nan
65183;BME280;51771;51.068;-1.780;2024-02-16T10:44:04;56839.38;;;0.01;nan
65183;BME280;51771;51.068;-1.780;2024-02-16T10:46:30;55472.19;;;0.01;nan
65183;BME280;51771;51.068;-1.780;2024-02-16T10:48:55;53909.66;;;0.01;nan
65183;BME280;51771;51.068;-1.780;2024-02-16T10:51:52;52542.47;;;0.01;nan
65183;BME280;51771;51.068;-1.780;2024-02-16T10:54:21;51956.53;;;0.01;nan
65183;BME280;51771;51.068;-1.780;2024-02-16T10:56:47;53519.03;;;0.01;nan
65183;BME280;51771;51.068;-1.780;2024-02-16T10:59:13;51761.22;;;0.01;nan
65183;BME280;51771;51.068;-1.780;2024-02-16T11:01:42;50589.34;;;0.01;nan
65183;BME280;51771;51.068;-1.780;2024-02-16T11:04:12;51761.22;;;0.01;nan
65183;BME280;51771;51.068;-1.780;2024-02-16T11:06:54;51761.22;;;0.01;nan
65183;BME280;51771;51.068;-1.780;2024-02-16T11:12:00;55472.19;;;0.01;nan
65183;BME280;51771;51.068;-1.780;2024-02-16T11:17:01;71878.53;;;0.01;nan
65183;BME280;51771;51.068;-1.780;2024-02-16T11:19:27;78128.56;;;0.01;nan
65183;BME280;51771;51.068;-1.780;2024-02-16T11:21:56;100002.16;;;0.01;nan
65183;BME280;51771;51.068;-1.780;2024-02-16T11:24:29;100002.16;;;0.01;nan
65183;BME280;51771;51.068;-1.780;2024-02-16T11:26:55;100002.16;;;0.01;nan
65183;BME280;51771;51.068;-1.780;2024-02-16T11:29:21;100002.16;;;0.01;nan
65183;BME280;51771;51.068;-1.780;2024-02-16T11:31:47;100002.16;;;0.01;nan
65183;BME280;51771;51.068;-1.780;2024-02-16T11:34:22;100002.16;;;0.01;nan
65183;BME280;51771;51.068;-1.780;2024-02-16T11:36:47;100002.16;;;0.01;nan
65183;BME280;51771;51.068;-1.780;2024-02-16T11:39:13;100002.16;;;0.01;nan
65183;BME280;51771;51.068;-1.780;2024-02-16T11:41:41;100002.16;;;0.01;nan
65183;BME280;51771;51.068;-1.780;2024-02-16T11:44:07;100002.16;;;0.01;nan
65183;BME280;51771;51.068;-1.780;2024-02-16T11:46:32;100002.16;;;0.01;nan
65183;BME280;51771;51.068;-1.780;2024-02-16T11:49:05;100002.16;;;0.01;nan
65183;BME280;51771;51.068;-1.780;2024-02-16T11:51:32;100002.16;;;0.01;nan
65183;BME280;51771;51.068;-1.780;2024-02-16T11:53:58;100002.16;;;0.01;nan
65183;BME280;51771;51.068;-1.780;2024-02-16T11:56:24;100002.16;;;0.01;nan
65183;BME280;51771;51.068;-1.780;2024-02-16T11:58:50;100002.16;;;0.01;nan
65183;BME280;51771;51.068;-1.780;2024-02-16T12:01:15;100002.16;;;0.01;nan
65183;BME280;51771;51.068;-1.780;2024-02-16T12:03:41;100002.16;;;0.01;nan
65183;BME280;51771;51.068;-1.780;2024-02-16T12:06:07;100002.16;;;0.01;nan
65183;BME280;51771;51.068;-1.780;2024-02-16T12:08:34;100002.16;;;0.01;nan
65183;BME280;51771;51.068;-1.780;2024-02-16T12:11:00;100002.16;;;0.01;nan
65183;BME280;51771;51.068;-1.780;2024-02-16T12:13:25;100002.16;;;0.01;nan
65183;BME280;51771;51.068;-1.780;2024-02-16T12:15:51;100002.16;;;0.01;nan
65183;BME280;51771;51.068;-1.780;2024-02-16T12:18:20;100002.16;;;0.01;nan
65183;BME280;51771;51.068;-1.780;2024-02-16T12:21:02;100002.16;;;0.01;nan
65183;BME280;51771;51.068;-1.780;2024-02-16T12:23:29;100002.16;;;0.01;nan
65183;BME280;51771;51.068;-1.780;2024-02-16T12:25:58;100002.16;;;0.01;nan
65183;BME280;51771;51.068;-1.780;2024-02-16T12:28:25;100002.16;;;0.01;nan
65183;BME280;51771;51.068;-1.780;2024-02-16T12:30:51;100002.16;;;0.01;nan
65183;BME280;51771;51.068;-1.780;2024-02-16T12:33:16;100002.16;;;0.01;nan
65183;BME280;51771;51.068;-1.780;2024-02-16T12:35:42;100002.16;;;0.01;nan
65183;BME280;51771;51.068;-1.780;2024-02-16T12:38:08;100002.16;;;0.01;nan
65183;BME280;51771;51.068;-1.780;2024-02-16T12:40:33;100002.16;;;0.01;nan
65183;BME280;51771;51.068;-1.780;2024-02-16T12:42:58;100002.16;;;0.01;nan
65183;BME280;51771;51.068;-1.780;2024-02-16T12:45:24;100002.16;;;0.01;nan
65183;BME280;51771;51.068;-1.780;2024-02-16T12:47:49;100002.16;;;0.01;nan
65183;BME280;51771;51.068;-1.780;2024-02-16T12:50:16;100002.16;;;0.01;nan
65183;BME280;51771;51.068;-1.780;2024-02-16T12:52:42;100002.16;;;0.01;nan
65183;BME280;51771;51.068;-1.780;2024-02-16T12:55:08;100002.16;;;0.01;nan
65183;BME280;51771;51.068;-1.780;2024-02-16T12:57:36;100002.16;;;0.01;nan
65183;BME280;51771;51.068;-1.780;2024-02-16T13:00:01;100002.16;;;0.01;nan
65183;BME280;51771;51.068;-1.780;2024-02-16T13:02:28;100002.16;;;0.01;nan
65183;BME280;51771;51.068;-1.780;2024-02-16T13:04:54;100002.16;;;0.01;nan
65183;BME280;51771;51.068;-1.780;2024-02-16T13:07:19;100002.16;;;0.01;nan
65183;BME280;51771;51.068;-1.780;2024-02-16T13:09:45;100002.16;;;0.01;nan
65183;BME280;51771;51.068;-1.780;2024-02-16T13:12:10;100002.16;;;0.01;nan
65183;BME280;51771;51.068;-1.780;2024-02-16T13:14:35;100002.16;;;0.01;nan